Aérodrome :
LOGIN :

S'inscrire | Disclaimer

   EN    FR    IT 

 










Légende :    VFR   VFR Marginal   IFR   IFR Intensif   IFR Très Intensif
Visi : 
Plafond : 
>= 8 km
>= 3000ft
5 à 8 km
1000 à 3000 ft
1500m à 5 km
500 à 1000 ft
800 à 1500m
200 à 500 ft
< 800m
< 200 ft
Symboles :   Orages  Brouillard  Fortes neiges  Fortes précipitations  Vent > 20 kt
SIGMETs :   Divers  Orages  Givrage  Turbulence  Onde Orograph.  Cendres Volcan.







- Altitude de l'aérodrome : 392 ft
- Code IATA : CDG
- Voir les cartes d'approche


LFPG - Paris-Aeroport Charles De Gaulle

DERNIER METAR :
  • 181430Z 13015KT 090V160 CAVOK 28/14 Q1011 NOSIG

METARs EXPIRÉS :
  • 181400Z 13014KT CAVOK 27/14 Q1011 NOSIG
  • 181330Z 12014KT 090V150 CAVOK 27/13 Q1011 NOSIG
  • 181300Z 14011KT 110V170 CAVOK 27/12 Q1012 NOSIG
  • 181230Z 13012KT 100V160 CAVOK 28/14 Q1012 NOSIG
  • 181200Z 12011KT 080V150 CAVOK 27/15 Q1012 NOSIG

TAF TAF LFPG
Valide du 18 à 12h jusqu'au 19 à 18h UTC


181100Z 1812/1918 13010KT CAVOK TX29/1815Z TN19/1904Z
PROB40
TEMPO 1821/1906 -SHRA SCT060TCU
PROB30 1823/1903 25015G40KT 3000 TSRAGS SCT050CB
BECMG 1906/1908 25010KT
PROB40
TEMPO 1912/1918 4000 SHRA BKN040CB
PROB30 1915/1918 TSRA
ATIS : +33 1 48 62 10 92
Pas de NOTAMs connus pour ce terrain.



MET'MAP, la Météo Aéronautique d'un coup d'oeil ! - Copyright ORBIFLY Décembre 2007 - Disclaimer

ORBIFLY MET'MAP TEAM :

Programmation & Développement : Alexandra Zaïnal
Conception & Développement : Baudouin d'Aumeries
Co-Programmation & Développement : Marc-Olivier Méhu
Soutien technique & logistique : Manuel Goepfert

Contact : metmap@orbifly.com




SOURCES & CREDITS :

   NOAA